sensor_id;sensor_type;location;lat;lon;timestamp;pressure;altitude;pressure_sealevel;temperature;humidity
17525;BME280;40431;52.198;9.902;2023-05-09T00:02:04;101133.06;;;12.33;87.34
17525;BME280;40431;52.198;9.902;2023-05-09T00:04:30;101135.09;;;12.30;87.56
17525;BME280;40431;52.198;9.902;2023-05-09T00:06:58;101137.88;;;12.28;88.01
17525;BME280;40431;52.198;9.902;2023-05-09T00:09:24;101132.53;;;12.27;88.54
17525;BME280;40431;52.198;9.902;2023-05-09T00:11:51;101134.75;;;12.20;87.86
17525;BME280;40431;52.198;9.902;2023-05-09T00:14:17;101135.63;;;12.21;89.65
17525;BME280;40431;52.198;9.902;2023-05-09T00:16:43;101138.50;;;12.17;88.54
17525;BME280;40431;52.198;9.902;2023-05-09T00:19:14;101132.47;;;12.12;89.06
17525;BME280;40431;52.198;9.902;2023-05-09T00:21:40;101135.38;;;12.09;91.46
17525;BME280;40431;52.198;9.902;2023-05-09T00:24:06;101130.13;;;12.06;91.26
17525;BME280;40431;52.198;9.902;2023-05-09T00:26:33;101126.69;;;12.02;90.64
17525;BME280;40431;52.198;9.902;2023-05-09T00:28:59;101137.75;;;11.99;91.20
17525;BME280;40431;52.198;9.902;2023-05-09T00:31:26;101129.88;;;11.95;91.17
17525;BME280;40431;52.198;9.902;2023-05-09T00:33:53;101124.50;;;11.93;92.71
17525;BME280;40431;52.198;9.902;2023-05-09T00:36:20;101121.88;;;11.92;92.92
17525;BME280;40431;52.198;9.902;2023-05-09T00:38:47;101120.28;;;11.88;92.57
17525;BME280;40431;52.198;9.902;2023-05-09T00:41:13;101114.06;;;11.85;92.97
17525;BME280;40431;52.198;9.902;2023-05-09T00:43:40;101103.63;;;11.78;91.54
17525;BME280;40431;52.198;9.902;2023-05-09T00:46:06;101105.56;;;11.76;92.30
17525;BME280;40431;52.198;9.902;2023-05-09T00:48:33;101102.03;;;11.74;92.60
17525;BME280;40431;52.198;9.902;2023-05-09T00:51:00;101095.13;;;11.68;92.35
17525;BME280;40431;52.198;9.902;2023-05-09T00:53:28;101104.16;;;11.68;92.52
17525;BME280;40431;52.198;9.902;2023-05-09T00:55:55;101089.69;;;11.68;92.91
17525;BME280;40431;52.198;9.902;2023-05-09T00:58:22;101098.81;;;11.67;93.10
17525;BME280;40431;52.198;9.902;2023-05-09T01:00:49;101098.19;;;11.62;93.19
17525;BME280;40431;52.198;9.902;2023-05-09T01:03:15;101097.41;;;11.60;92.32
17525;BME280;40431;52.198;9.902;2023-05-09T01:05:51;101101.09;;;11.59;93.18
17525;BME280;40431;52.198;9.902;2023-05-09T01:08:30;101096.97;;;11.51;92.78
17525;BME280;40431;52.198;9.902;2023-05-09T01:11:02;101092.50;;;11.50;94.89
17525;BME280;40431;52.198;9.902;2023-05-09T01:13:37;101087.31;;;11.46;93.92
17525;BME280;40431;52.198;9.902;2023-05-09T01:16:11;101091.16;;;11.42;94.12
17525;BME280;40431;52.198;9.902;2023-05-09T01:18:44;101074.00;;;11.41;95.22
17525;BME280;40431;52.198;9.902;2023-05-09T01:21:15;101084.88;;;11.41;95.13
17525;BME280;40431;52.198;9.902;2023-05-09T01:24:06;101080.41;;;11.40;94.99
17525;BME280;40431;52.198;9.902;2023-05-09T01:26:43;101075.78;;;11.42;95.02
17525;BME280;40431;52.198;9.902;2023-05-09T01:29:30;101070.69;;;11.36;94.29
17525;BME280;40431;52.198;9.902;2023-05-09T01:32:02;101066.09;;;11.36;95.27
17525;BME280;40431;52.198;9.902;2023-05-09T01:34:31;101060.00;;;11.33;95.87
17525;BME280;40431;52.198;9.902;2023-05-09T01:36:59;101057.44;;;11.30;96.06
17525;BME280;40431;52.198;9.902;2023-05-09T01:39:27;101056.75;;;11.26;96.42
17525;BME280;40431;52.198;9.902;2023-05-09T01:41:55;101056.13;;;11.21;96.19
17525;BME280;40431;52.198;9.902;2023-05-09T01:44:24;101055.59;;;11.14;96.11
17525;BME280;40431;52.198;9.902;2023-05-09T01:46:52;101050.16;;;11.14;96.28
17525;BME280;40431;52.198;9.902;2023-05-09T01:49:21;101054.97;;;11.09;96.12
17525;BME280;40431;52.198;9.902;2023-05-09T01:51:48;101051.34;;;11.09;96.47
17525;BME280;40431;52.198;9.902;2023-05-09T01:54:16;101052.34;;;11.08;96.39
17525;BME280;40431;52.198;9.902;2023-05-09T01:56:44;101056.78;;;11.09;97.17
17525;BME280;40431;52.198;9.902;2023-05-09T01:59:11;101050.69;;;11.05;96.58
17525;BME280;40431;52.198;9.902;2023-05-09T02:01:42;101046.97;;;11.06;97.19
17525;BME280;40431;52.198;9.902;2023-05-09T02:04:09;101047.25;;;11.01;97.64
17525;BME280;40431;52.198;9.902;2023-05-09T02:06:36;101052.69;;;11.01;98.11
17525;BME280;40431;52.198;9.902;2023-05-09T02:09:03;101043.03;;;10.96;97.54
17525;BME280;40431;52.198;9.902;2023-05-09T02:11:29;101039.63;;;10.92;97.88
17525;BME280;40431;52.198;9.902;2023-05-09T02:13:56;101037.16;;;10.88;97.47
17525;BME280;40431;52.198;9.902;2023-05-09T02:16:22;101041.88;;;10.84;97.88
17525;BME280;40431;52.198;9.902;2023-05-09T02:18:50;101040.19;;;10.81;98.55
17525;BME280;40431;52.198;9.902;2023-05-09T02:21:17;101038.63;;;10.77;98.97
17525;BME280;40431;52.198;9.902;2023-05-09T02:23:43;101035.72;;;10.80;100.00
17525;BME280;40431;52.198;9.902;2023-05-09T02:26:10;101029.59;;;10.77;100.00
17525;BME280;40431;52.198;9.902;2023-05-09T02:28:37;101024.16;;;10.77;100.00
17525;BME280;40431;52.198;9.902;2023-05-09T02:31:04;101029.84;;;10.72;100.00
17525;BME280;40431;52.198;9.902;2023-05-09T02:33:33;101032.47;;;10.74;100.00
17525;BME280;40431;52.198;9.902;2023-05-09T02:36:03;101043.41;;;10.72;100.00
17525;BME280;40431;52.198;9.902;2023-05-09T02:38:30;101039.13;;;10.68;100.00
17525;BME280;40431;52.198;9.902;2023-05-09T02:40:57;101043.03;;;10.62;100.00
17525;BME280;40431;52.198;9.902;2023-05-09T02:43:23;101040.25;;;10.64;100.00
17525;BME280;40431;52.198;9.902;2023-05-09T02:45:50;101027.88;;;10.58;100.00
17525;BME280;40431;52.198;9.902;2023-05-09T02:48:16;101036.91;;;10.59;100.00
17525;BME280;40431;52.198;9.902;2023-05-09T02:50:42;101036.16;;;10.55;100.00
17525;BME280;40431;52.198;9.902;2023-05-09T02:53:11;101031.78;;;10.52;100.00
17525;BME280;40431;52.198;9.902;2023-05-09T02:55:37;101036.25;;;10.53;100.00
17525;BME280;40431;52.198;9.902;2023-05-09T02:58:04;101031.78;;;10.52;100.00
17525;BME280;40431;52.198;9.902;2023-05-09T03:00:30;101028.44;;;10.47;100.00
17525;BME280;40431;52.198;9.902;2023-05-09T03:02:57;101025.59;;;10.50;100.00
17525;BME280;40431;52.198;9.902;2023-05-09T03:05:24;101025.66;;;10.49;100.00
17525;BME280;40431;52.198;9.902;2023-05-09T03:07:50;101019.34;;;10.48;100.00
17525;BME280;40431;52.198;9.902;2023-05-09T03:10:18;101027.66;;;10.45;100.00
17525;BME280;40431;52.198;9.902;2023-05-09T03:12:45;101017.84;;;10.43;100.00
17525;BME280;40431;52.198;9.902;2023-05-09T03:15:11;101021.84;;;10.35;100.00
17525;BME280;40431;52.198;9.902;2023-05-09T03:17:38;101018.53;;;10.29;100.00
17525;BME280;40431;52.198;9.902;2023-05-09T03:20:06;101012.97;;;10.32;100.00
17525;BME280;40431;52.198;9.902;2023-05-09T03:22:34;101009.47;;;10.30;100.00
17525;BME280;40431;52.198;9.902;2023-05-09T03:25:01;101002.28;;;10.29;100.00
17525;BME280;40431;52.198;9.902;2023-05-09T03:27:29;101004.34;;;10.24;100.00
17525;BME280;40431;52.198;9.902;2023-05-09T03:29:55;100996.47;;;10.19;100.00
17525;BME280;40431;52.198;9.902;2023-05-09T03:32:22;101008.19;;;10.19;100.00
17525;BME280;40431;52.198;9.902;2023-05-09T03:34:48;101002.06;;;10.16;100.00
17525;BME280;40431;52.198;9.902;2023-05-09T03:37:15;101005.94;;;10.10;100.00
17525;BME280;40431;52.198;9.902;2023-05-09T03:39:41;101008.44;;;10.15;100.00
17525;BME280;40431;52.198;9.902;2023-05-09T03:42:08;101003.88;;;10.15;100.00
17525;BME280;40431;52.198;9.902;2023-05-09T03:44:35;101008.50;;;10.13;100.00
17525;BME280;40431;52.198;9.902;2023-05-09T03:47:02;100996.88;;;10.11;100.00
17525;BME280;40431;52.198;9.902;2023-05-09T03:49:28;100993.59;;;10.05;100.00
17525;BME280;40431;52.198;9.902;2023-05-09T03:51:55;100990.13;;;10.02;100.00
17525;BME280;40431;52.198;9.902;2023-05-09T03:54:21;100994.81;;;9.99;100.00
17525;BME280;40431;52.198;9.902;2023-05-09T03:56:48;100990.03;;;10.04;100.00
17525;BME280;40431;52.198;9.902;2023-05-09T03:59:14;100990.13;;;10.02;100.00
17525;BME280;40431;52.198;9.902;2023-05-09T04:01:42;100996.69;;;9.97;100.00
17525;BME280;40431;52.198;9.902;2023-05-09T04:04:09;100987.78;;;9.95;100.00
17525;BME280;40431;52.198;9.902;2023-05-09T04:06:35;100984.19;;;9.94;100.00
17525;BME280;40431;52.198;9.902;2023-05-09T04:09:02;100983.97;;;9.99;100.00
17525;BME280;40431;52.198;9.902;2023-05-09T04:11:28;100980.44;;;9.97;100.00
17525;BME280;40431;52.198;9.902;2023-05-09T04:13:55;100976.97;;;9.95;100.00
17525;BME280;40431;52.198;9.902;2023-05-09T04:16:21;100976.78;;;9.98;100.00
17525;BME280;40431;52.198;9.902;2023-05-09T04:18:49;100963.41;;;9.95;100.00
17525;BME280;40431;52.198;9.902;2023-05-09T04:21:15;100960.84;;;9.92;100.00
17525;BME280;40431;52.198;9.902;2023-05-09T04:23:42;100960.28;;;9.85;100.00
17525;BME280;40431;52.198;9.902;2023-05-09T04:26:08;100957.81;;;9.80;100.00
17525;BME280;40431;52.198;9.902;2023-05-09T04:28:36;100955.13;;;9.80;100.00
17525;BME280;40431;52.198;9.902;2023-05-09T04:31:03;100964.84;;;9.84;100.00
17525;BME280;40431;52.198;9.902;2023-05-09T04:33:29;100959.25;;;9.88;100.00
17525;BME280;40431;52.198;9.902;2023-05-09T04:35:57;100961.47;;;9.97;100.00
17525;BME280;40431;52.198;9.902;2023-05-09T04:38:23;100969.31;;;10.03;100.00
17525;BME280;40431;52.198;9.902;2023-05-09T04:40:50;100967.97;;;10.12;100.00
17525;BME280;40431;52.198;9.902;2023-05-09T04:43:16;100970.09;;;10.23;100.00
17525;BME280;40431;52.198;9.902;2023-05-09T04:45:43;100979.56;;;10.31;100.00
17525;BME280;40431;52.198;9.902;2023-05-09T04:48:10;100971.06;;;10.39;100.00
17525;BME280;40431;52.198;9.902;2023-05-09T04:50:36;100963.56;;;10.44;100.00
17525;BME280;40431;52.198;9.902;2023-05-09T04:53:04;100956.53;;;10.40;100.00
17525;BME280;40431;52.198;9.902;2023-05-09T04:55:32;100963.88;;;10.38;100.00
17525;BME280;40431;52.198;9.902;2023-05-09T04:57:59;100960.50;;;10.33;100.00
17525;BME280;40431;52.198;9.902;2023-05-09T05:00:26;100963.88;;;10.38;100.00
17525;BME280;40431;52.198;9.902;2023-05-09T05:02:52;100953.66;;;10.43;100.00
17525;BME280;40431;52.198;9.902;2023-05-09T05:05:19;100950.94;;;10.43;100.00
17525;BME280;40431;52.198;9.902;2023-05-09T05:07:45;100948.09;;;10.46;100.00
17525;BME280;40431;52.198;9.902;2023-05-09T05:10:13;100952.53;;;10.47;100.00
17525;BME280;40431;52.198;9.902;2023-05-09T05:12:39;100952.84;;;10.59;100.00
17525;BME280;40431;52.198;9.902;2023-05-09T05:15:06;100955.91;;;10.68;100.00
17525;BME280;40431;52.198;9.902;2023-05-09T05:17:33;100956.09;;;10.81;100.00
17525;BME280;40431;52.198;9.902;2023-05-09T05:19:59;100952.25;;;10.85;100.00
17525;BME280;40431;52.198;9.902;2023-05-09T05:22:26;100956.38;;;10.93;100.00
17525;BME280;40431;52.198;9.902;2023-05-09T05:24:52;100949.84;;;10.97;100.00
17525;BME280;40431;52.198;9.902;2023-05-09T05:27:20;100944.94;;;11.03;100.00
17525;BME280;40431;52.198;9.902;2023-05-09T05:29:46;100957.38;;;11.08;100.00
17525;BME280;40431;52.198;9.902;2023-05-09T05:32:12;100954.38;;;11.12;100.00
17525;BME280;40431;52.198;9.902;2023-05-09T05:34:39;100948.22;;;11.25;100.00
17525;BME280;40431;52.198;9.902;2023-05-09T05:37:05;100949.31;;;11.38;100.00
17525;BME280;40431;52.198;9.902;2023-05-09T05:39:31;100943.34;;;11.47;100.00
17525;BME280;40431;52.198;9.902;2023-05-09T05:41:58;100936.09;;;11.62;100.00
17525;BME280;40431;52.198;9.902;2023-05-09T05:44:25;100936.22;;;11.75;100.00
17525;BME280;40431;52.198;9.902;2023-05-09T05:46:52;100941.91;;;11.86;100.00
17525;BME280;40431;52.198;9.902;2023-05-09T05:49:18;100945.88;;;11.97;99.95
17525;BME280;40431;52.198;9.902;2023-05-09T05:51:45;100932.31;;;12.11;100.00
17525;BME280;40431;52.198;9.902;2023-05-09T05:54:11;100923.28;;;12.25;98.70
17525;BME280;40431;52.198;9.902;2023-05-09T05:56:37;100927.06;;;12.37;97.55
17525;BME280;40431;52.198;9.902;2023-05-09T05:59:04;100922.81;;;12.47;96.76
17525;BME280;40431;52.198;9.902;2023-05-09T06:01:32;100921.53;;;12.53;97.63
17525;BME280;40431;52.198;9.902;2023-05-09T06:03:58;100907.03;;;12.67;97.85
17525;BME280;40431;52.198;9.902;2023-05-09T06:06:25;100901.91;;;12.77;97.38
17525;BME280;40431;52.198;9.902;2023-05-09T06:08:52;100905.84;;;12.85;96.49
17525;BME280;40431;52.198;9.902;2023-05-09T06:11:19;100905.25;;;12.95;96.50
17525;BME280;40431;52.198;9.902;2023-05-09T06:13:46;100908.16;;;13.06;96.90
17525;BME280;40431;52.198;9.902;2023-05-09T06:16:12;100910.84;;;13.20;95.16
17525;BME280;40431;52.198;9.902;2023-05-09T06:18:40;100909.84;;;13.36;95.11
17525;BME280;40431;52.198;9.902;2023-05-09T06:21:06;100898.13;;;13.48;93.96
17525;BME280;40431;52.198;9.902;2023-05-09T06:23:32;100903.53;;;13.63;92.32
17525;BME280;40431;52.198;9.902;2023-05-09T06:26:01;100901.88;;;13.73;91.28
17525;BME280;40431;52.198;9.902;2023-05-09T06:28:27;100899.31;;;13.84;90.89
17525;BME280;40431;52.198;9.902;2023-05-09T06:30:53;100893.88;;;13.97;90.98
17525;BME280;40431;52.198;9.902;2023-05-09T06:33:20;100894.09;;;14.07;90.99
17525;BME280;40431;52.198;9.902;2023-05-09T06:35:47;100888.44;;;14.23;91.35
17525;BME280;40431;52.198;9.902;2023-05-09T06:38:14;100882.75;;;14.39;92.54
17525;BME280;40431;52.198;9.902;2023-05-09T06:40:40;100879.44;;;14.60;92.29
17525;BME280;40431;52.198;9.902;2023-05-09T06:43:07;100873.66;;;14.77;87.14
17525;BME280;40431;52.198;9.902;2023-05-09T06:45:33;100880.50;;;14.96;87.88
17525;BME280;40431;52.198;9.902;2023-05-09T06:48:00;100880.63;;;15.18;86.19
17525;BME280;40431;52.198;9.902;2023-05-09T06:50:26;100871.03;;;15.37;84.35
17525;BME280;40431;52.198;9.902;2023-05-09T06:52:54;100865.88;;;15.57;82.08
17525;BME280;40431;52.198;9.902;2023-05-09T06:55:20;100864.44;;;15.75;83.52
17525;BME280;40431;52.198;9.902;2023-05-09T06:57:47;100848.50;;;15.93;83.17
17525;BME280;40431;52.198;9.902;2023-05-09T07:00:14;100853.63;;;16.09;83.52
17525;BME280;40431;52.198;9.902;2023-05-09T07:02:41;100845.41;;;16.20;82.39
17525;BME280;40431;52.198;9.902;2023-05-09T07:05:08;100838.22;;;16.42;75.31
17525;BME280;40431;52.198;9.902;2023-05-09T07:07:34;100827.25;;;16.53;72.92
17525;BME280;40431;52.198;9.902;2023-05-09T07:10:03;100829.00;;;16.66;67.77
17525;BME280;40431;52.198;9.902;2023-05-09T07:12:30;100826.84;;;16.81;66.50
17525;BME280;40431;52.198;9.902;2023-05-09T07:14:56;100825.22;;;16.90;66.23
17525;BME280;40431;52.198;9.902;2023-05-09T07:17:22;100817.00;;;17.01;65.14
17525;BME280;40431;52.198;9.902;2023-05-09T07:19:49;100821.44;;;17.13;65.31
17525;BME280;40431;52.198;9.902;2023-05-09T07:22:15;100810.69;;;17.22;64.28
17525;BME280;40431;52.198;9.902;2023-05-09T07:24:42;100801.34;;;17.24;63.31
17525;BME280;40431;52.198;9.902;2023-05-09T07:27:11;100795.47;;;17.29;64.53
17525;BME280;40431;52.198;9.902;2023-05-09T07:29:38;100793.09;;;17.35;64.68
17525;BME280;40431;52.198;9.902;2023-05-09T07:32:04;100801.66;;;17.42;63.82
17525;BME280;40431;52.198;9.902;2023-05-09T07:34:31;100798.81;;;17.53;64.15
17525;BME280;40431;52.198;9.902;2023-05-09T07:36:57;100789.56;;;17.66;64.80
17525;BME280;40431;52.198;9.902;2023-05-09T07:39:23;100785.44;;;17.81;64.21
17525;BME280;40431;52.198;9.902;2023-05-09T07:41:50;100778.16;;;17.92;63.22
17525;BME280;40431;52.198;9.902;2023-05-09T07:44:17;100775.91;;;17.97;62.34
17525;BME280;40431;52.198;9.902;2023-05-09T07:46:44;100775.81;;;18.08;61.70
17525;BME280;40431;52.198;9.902;2023-05-09T07:49:10;100773.97;;;18.18;62.24
17525;BME280;40431;52.198;9.902;2023-05-09T07:51:36;100774.59;;;18.32;64.12
17525;BME280;40431;52.198;9.902;2023-05-09T07:54:03;100762.78;;;18.41;61.52
17525;BME280;40431;52.198;9.902;2023-05-09T07:56:29;100755.88;;;18.47;60.44
17525;BME280;40431;52.198;9.902;2023-05-09T07:58:55;100758.50;;;18.48;59.49
17525;BME280;40431;52.198;9.902;2023-05-09T08:01:23;100742.00;;;18.48;61.40
17525;BME280;40431;52.198;9.902;2023-05-09T08:03:49;100758.22;;;18.61;61.51
17525;BME280;40431;52.198;9.902;2023-05-09T08:06:16;100742.91;;;18.68;60.23
17525;BME280;40431;52.198;9.902;2023-05-09T08:08:42;100748.41;;;18.78;61.67
17525;BME280;40431;52.198;9.902;2023-05-09T08:11:09;100739.31;;;18.88;60.74
17525;BME280;40431;52.198;9.902;2023-05-09T08:13:35;100742.13;;;18.97;60.84
17525;BME280;40431;52.198;9.902;2023-05-09T08:16:01;100737.94;;;19.03;58.76
17525;BME280;40431;52.198;9.902;2023-05-09T08:18:29;100736.91;;;19.04;58.54
17525;BME280;40431;52.198;9.902;2023-05-09T08:20:55;100728.53;;;19.06;59.11
17525;BME280;40431;52.198;9.902;2023-05-09T08:23:23;100734.31;;;19.12;58.89
17525;BME280;40431;52.198;9.902;2023-05-09T08:25:51;100727.63;;;19.25;60.61
17525;BME280;40431;52.198;9.902;2023-05-09T08:28:18;100720.56;;;19.32;59.59
17525;BME280;40431;52.198;9.902;2023-05-09T08:30:46;100713.13;;;19.42;60.73
17525;BME280;40431;52.198;9.902;2023-05-09T08:33:12;100717.16;;;19.58;59.95
17525;BME280;40431;52.198;9.902;2023-05-09T08:35:40;100705.56;;;19.64;60.05
17525;BME280;40431;52.198;9.902;2023-05-09T08:38:07;100705.22;;;19.77;60.44
17525;BME280;40431;52.198;9.902;2023-05-09T08:40:34;100701.44;;;19.88;60.90
17525;BME280;40431;52.198;9.902;2023-05-09T08:43:02;100702.13;;;19.99;58.89
17525;BME280;40431;52.198;9.902;2023-05-09T08:45:29;100688.09;;;20.02;58.23
17525;BME280;40431;52.198;9.902;2023-05-09T08:47:56;100688.63;;;20.06;58.60
17525;BME280;40431;52.198;9.902;2023-05-09T08:50:23;100684.81;;;20.17;59.75
17525;BME280;40431;52.198;9.902;2023-05-09T08:52:52;100682.44;;;20.22;57.17
17525;BME280;40431;52.198;9.902;2023-05-09T08:55:19;100684.84;;;20.35;57.27
17525;BME280;40431;52.198;9.902;2023-05-09T08:57:46;100680.56;;;20.50;56.95
17525;BME280;40431;52.198;9.902;2023-05-09T09:00:13;100685.81;;;20.62;56.16
17525;BME280;40431;52.198;9.902;2023-05-09T09:02:41;100672.56;;;20.75;52.80
17525;BME280;40431;52.198;9.902;2023-05-09T09:05:09;100671.22;;;20.79;52.48
17525;BME280;40431;52.198;9.902;2023-05-09T09:07:37;100670.59;;;20.85;52.00
17525;BME280;40431;52.198;9.902;2023-05-09T09:10:06;100666.44;;;20.81;51.00
17525;BME280;40431;52.198;9.902;2023-05-09T09:12:38;100661.47;;;20.85;51.51
17525;BME280;40431;52.198;9.902;2023-05-09T09:15:06;100653.66;;;20.80;52.00
17525;BME280;40431;52.198;9.902;2023-05-09T09:17:39;100656.34;;;20.90;58.70
17525;BME280;40431;52.198;9.902;2023-05-09T09:20:09;100651.06;;;20.97;53.49
17525;BME280;40431;52.198;9.902;2023-05-09T09:22:38;100650.97;;;21.07;57.08
17525;BME280;40431;52.198;9.902;2023-05-09T09:25:09;100649.63;;;21.11;57.66
17525;BME280;40431;52.198;9.902;2023-05-09T09:27:36;100652.38;;;21.11;58.00
17525;BME280;40431;52.198;9.902;2023-05-09T09:30:06;100648.44;;;21.13;52.72
17525;BME280;40431;52.198;9.902;2023-05-09T09:32:33;100647.84;;;21.28;56.40
17525;BME280;40431;52.198;9.902;2023-05-09T09:35:03;100645.78;;;21.30;52.96
17525;BME280;40431;52.198;9.902;2023-05-09T09:37:32;100637.22;;;21.33;50.27
17525;BME280;40431;52.198;9.902;2023-05-09T09:39:59;100625.19;;;21.42;48.72
17525;BME280;40431;52.198;9.902;2023-05-09T09:42:39;100627.47;;;21.47;51.79
17525;BME280;40431;52.198;9.902;2023-05-09T09:45:08;100618.94;;;21.58;47.42
17525;BME280;40431;52.198;9.902;2023-05-09T09:47:35;100622.59;;;21.67;49.31
17525;BME280;40431;52.198;9.902;2023-05-09T09:50:08;100613.66;;;21.73;47.53
17525;BME280;40431;52.198;9.902;2023-05-09T09:52:36;100613.31;;;21.76;49.22
17525;BME280;40431;52.198;9.902;2023-05-09T09:55:07;100610.28;;;21.88;49.46
17525;BME280;40431;52.198;9.902;2023-05-09T09:57:36;100600.28;;;21.87;47.10
17525;BME280;40431;52.198;9.902;2023-05-09T10:00:04;100597.31;;;21.80;45.45
17525;BME280;40431;52.198;9.902;2023-05-09T10:02:30;100595.94;;;21.84;46.06
17525;BME280;40431;52.198;9.902;2023-05-09T10:05:05;100590.75;;;21.73;47.04
17525;BME280;40431;52.198;9.902;2023-05-09T10:07:32;100580.75;;;21.80;46.43
17525;BME280;40431;52.198;9.902;2023-05-09T10:09:59;100581.31;;;21.92;48.37
17525;BME280;40431;52.198;9.902;2023-05-09T10:12:31;100578.56;;;22.00;47.70
17525;BME280;40431;52.198;9.902;2023-05-09T10:15:02;100576.34;;;22.04;48.92
17525;BME280;40431;52.198;9.902;2023-05-09T10:17:30;100577.56;;;22.09;45.79
17525;BME280;40431;52.198;9.902;2023-05-09T10:20:01;100561.00;;;22.17;45.76
17525;BME280;40431;52.198;9.902;2023-05-09T10:22:28;100562.56;;;22.20;44.02
17525;BME280;40431;52.198;9.902;2023-05-09T10:25:01;100555.66;;;22.16;44.34
17525;BME280;40431;52.198;9.902;2023-05-09T10:27:30;100560.34;;;22.32;46.28
17525;BME280;40431;52.198;9.902;2023-05-09T10:30:03;100554.81;;;22.32;45.80
17525;BME280;40431;52.198;9.902;2023-05-09T10:32:38;100537.25;;;22.41;46.79
17525;BME280;40431;52.198;9.902;2023-05-09T10:35:10;100536.56;;;22.47;46.56
17525;BME280;40431;52.198;9.902;2023-05-09T10:37:38;100542.78;;;22.49;44.98
17525;BME280;40431;52.198;9.902;2023-05-09T10:40:05;100532.06;;;22.55;45.04
17525;BME280;40431;52.198;9.902;2023-05-09T10:42:32;100529.31;;;22.55;46.82
17525;BME280;40431;52.198;9.902;2023-05-09T10:44:58;100516.56;;;22.62;45.72
17525;BME280;40431;52.198;9.902;2023-05-09T10:47:27;100528.25;;;22.72;47.80
17525;BME280;40431;52.198;9.902;2023-05-09T10:49:56;100517.41;;;22.79;48.66
17525;BME280;40431;52.198;9.902;2023-05-09T10:52:23;100513.41;;;22.81;50.63
17525;BME280;40431;52.198;9.902;2023-05-09T10:54:57;100509.94;;;22.88;47.72
17525;BME280;40431;52.198;9.902;2023-05-09T10:57:25;100498.53;;;22.91;48.18
17525;BME280;40431;52.198;9.902;2023-05-09T10:59:51;100499.75;;;22.96;46.58
17525;BME280;40431;52.198;9.902;2023-05-09T11:02:19;100496.25;;;23.02;45.81
17525;BME280;40431;52.198;9.902;2023-05-09T11:04:47;100477.63;;;22.96;46.67
17525;BME280;40431;52.198;9.902;2023-05-09T11:07:23;100485.41;;;22.93;47.71
17525;BME280;40431;52.198;9.902;2023-05-09T11:09:50;100485.72;;;22.98;46.85
17525;BME280;40431;52.198;9.902;2023-05-09T11:12:19;100476.38;;;23.07;47.29
17525;BME280;40431;52.198;9.902;2023-05-09T11:14:46;100474.28;;;23.09;46.16
17525;BME280;40431;52.198;9.902;2023-05-09T11:17:25;100464.63;;;23.13;45.97
17525;BME280;40431;52.198;9.902;2023-05-09T11:19:58;100466.53;;;23.05;44.44
17525;BME280;40431;52.198;9.902;2023-05-09T11:22:26;100457.53;;;23.11;45.63
17525;BME280;40431;52.198;9.902;2023-05-09T11:25:04;100454.25;;;23.15;45.13
17525;BME280;40431;52.198;9.902;2023-05-09T11:27:38;100452.53;;;23.14;45.35
17525;BME280;40431;52.198;9.902;2023-05-09T11:30:06;100451.13;;;23.18;43.94
17525;BME280;40431;52.198;9.902;2023-05-09T11:32:40;100449.91;;;23.21;44.97
17525;BME280;40431;52.198;9.902;2023-05-09T11:35:09;100444.19;;;23.23;45.25
17525;BME280;40431;52.198;9.902;2023-05-09T11:37:57;100438.63;;;23.31;46.32
17525;BME280;40431;52.198;9.902;2023-05-09T11:40:25;100434.47;;;23.35;46.49
17525;BME280;40431;52.198;9.902;2023-05-09T11:42:52;100435.28;;;23.44;46.48
17525;BME280;40431;52.198;9.902;2023-05-09T11:45:20;100432.28;;;23.54;45.28
17525;BME280;40431;52.198;9.902;2023-05-09T11:47:47;100435.91;;;23.54;45.65
17525;BME280;40431;52.198;9.902;2023-05-09T11:50:16;100439.84;;;23.60;48.31
17525;BME280;40431;52.198;9.902;2023-05-09T11:52:44;100435.84;;;23.62;45.77
17525;BME280;40431;52.198;9.902;2023-05-09T11:55:13;100423.88;;;23.70;45.69
17525;BME280;40431;52.198;9.902;2023-05-09T11:57:40;100423.47;;;23.81;47.28
17525;BME280;40431;52.198;9.902;2023-05-09T12:00:08;100426.91;;;23.83;45.64
17525;BME280;40431;52.198;9.902;2023-05-09T12:02:34;100413.25;;;23.82;44.89
17525;BME280;40431;52.198;9.902;2023-05-09T12:05:08;100405.97;;;23.81;44.95
17525;BME280;40431;52.198;9.902;2023-05-09T12:07:37;100413.38;;;23.89;46.33
17525;BME280;40431;52.198;9.902;2023-05-09T12:10:05;100411.91;;;24.01;46.85
17525;BME280;40431;52.198;9.902;2023-05-09T12:12:32;100398.63;;;23.96;48.41
17525;BME280;40431;52.198;9.902;2023-05-09T12:15:03;100403.47;;;23.94;47.02
17525;BME280;40431;52.198;9.902;2023-05-09T12:17:29;100398.63;;;23.96;47.77
17525;BME280;40431;52.198;9.902;2023-05-09T12:19:57;100393.09;;;23.96;48.07
17525;BME280;40431;52.198;9.902;2023-05-09T12:22:25;100398.88;;;24.10;47.27
17525;BME280;40431;52.198;9.902;2023-05-09T12:24:53;100392.75;;;24.14;47.21
17525;BME280;40431;52.198;9.902;2023-05-09T12:27:19;100392.03;;;24.21;47.24
17525;BME280;40431;52.198;9.902;2023-05-09T12:29:46;100385.06;;;24.25;47.41
17525;BME280;40431;52.198;9.902;2023-05-09T12:32:14;100386.78;;;24.26;47.33
17525;BME280;40431;52.198;9.902;2023-05-09T12:34:41;100380.41;;;24.02;47.47
17525;BME280;40431;52.198;9.902;2023-05-09T12:37:13;100378.97;;;24.06;49.97
17525;BME280;40431;52.198;9.902;2023-05-09T12:39:40;100378.91;;;24.14;47.99
17525;BME280;40431;52.198;9.902;2023-05-09T12:42:12;100379.06;;;24.21;49.87
17525;BME280;40431;52.198;9.902;2023-05-09T12:44:38;100376.53;;;24.26;48.35
17525;BME280;40431;52.198;9.902;2023-05-09T12:47:06;100380.28;;;24.18;48.28
17525;BME280;40431;52.198;9.902;2023-05-09T12:49:35;100373.75;;;24.11;48.27
17525;BME280;40431;52.198;9.902;2023-05-09T12:52:02;100368.22;;;24.11;48.84